Time;durP1;ratioP1;P1;durP2;ratioP2;P2;SDS_P1;SDS_P2;PMS_P1;PMS_P2;Temp;Humidity;BMP_temperature;BMP_pressure;BME280_temperature;BME280_humidity;BME280_pressure;Samples;Min_cycle;Max_cycle;Signal;HPM_P1;HPM_P2
2023/04/28 00:01:20;;;;;;;17.20;9.68;;;8.70;99.90;;;;;;5009684;28;20364;-65
2023/04/28 00:03:47;;;;;;;17.48;10.25;;;8.70;99.90;;;;;;5010676;28;20030;-65
2023/04/28 00:06:13;;;;;;;16.50;10.00;;;8.70;99.90;;;;;;4996870;28;20050;-66
2023/04/28 00:08:39;;;;;;;16.45;10.10;;;8.60;99.90;;;;;;5000254;28;20045;-64
2023/04/28 00:11:11;;;;;;;17.38;10.10;;;8.70;99.90;;;;;;5010537;28;20088;-64
2023/04/28 00:13:37;;;;;;;18.98;10.00;;;8.70;99.90;;;;;;5000330;28;20045;-65
2023/04/28 00:16:03;;;;;;;17.15;10.18;;;8.60;99.90;;;;;;5003984;28;20406;-64
2023/04/28 00:18:29;;;;;;;16.95;10.40;;;8.60;99.90;;;;;;4993568;28;20229;-66
2023/04/28 00:20:55;;;;;;;16.33;10.13;;;8.60;99.90;;;;;;4997690;28;20505;-65
2023/04/28 00:23:21;;;;;;;17.05;10.10;;;8.60;99.90;;;;;;5002537;28;20377;-65
2023/04/28 00:25:54;;;;;;;18.98;9.80;;;8.60;99.90;;;;;;5014266;28;20092;-65
2023/04/28 00:28:19;;;;;;;16.75;10.30;;;8.60;99.90;;;;;;5000503;28;20398;-66
2023/04/28 00:30:46;;;;;;;14.82;9.85;;;8.60;99.90;;;;;;5008244;28;20267;-65
2023/04/28 00:33:12;;;;;;;16.90;10.02;;;8.60;99.90;;;;;;5004542;28;20050;-66
2023/04/28 00:35:38;;;;;;;19.08;10.18;;;8.50;99.90;;;;;;4990593;28;20050;-64
2023/04/28 00:38:03;;;;;;;15.57;10.10;;;8.50;99.90;;;;;;5000835;28;20041;-63
2023/04/28 00:40:36;;;;;;;16.88;10.55;;;8.50;99.90;;;;;;5003831;28;20100;-63
2023/04/28 00:43:03;;;;;;;19.50;10.40;;;8.50;99.90;;;;;;4999050;28;20046;-65
2023/04/28 00:45:29;;;;;;;14.43;9.93;;;8.50;99.90;;;;;;4996737;28;20038;-63
2023/04/28 00:47:55;;;;;;;16.30;10.25;;;8.40;99.90;;;;;;5003764;28;20113;-63
2023/04/28 00:50:22;;;;;;;20.77;10.60;;;8.50;99.90;;;;;;5000031;28;20432;-63
2023/04/28 00:52:48;;;;;;;20.85;11.27;;;8.40;99.90;;;;;;4995385;28;20041;-63
2023/04/28 00:55:15;;;;;;;21.27;11.57;;;8.40;99.90;;;;;;4996190;28;20223;-63
2023/04/28 00:57:41;;;;;;;18.77;12.52;;;8.40;99.90;;;;;;5018191;28;20084;-64
2023/04/28 01:00:08;;;;;;;18.75;12.60;;;8.40;99.90;;;;;;5016461;28;20042;-65
2023/04/28 01:02:34;;;;;;;16.63;11.52;;;8.40;99.90;;;;;;5006535;28;20037;-64
2023/04/28 01:05:01;;;;;;;19.52;11.25;;;8.40;99.90;;;;;;5003443;28;20046;-63
2023/04/28 01:07:27;;;;;;;20.85;11.65;;;8.40;99.90;;;;;;5002629;28;20110;-65
2023/04/28 01:09:53;;;;;;;15.93;10.27;;;8.40;99.90;;;;;;5008747;28;20073;-66
2023/04/28 01:12:18;;;;;;;19.13;10.52;;;8.30;99.90;;;;;;4995756;28;20073;-65
2023/04/28 01:14:44;;;;;;;17.13;10.93;;;8.40;99.90;;;;;;4981811;28;20078;-65
2023/04/28 01:17:10;;;;;;;17.38;9.75;;;8.30;99.90;;;;;;4999875;28;20053;-65
2023/04/28 01:19:36;;;;;;;17.20;10.02;;;8.30;99.90;;;;;;4996214;28;20046;-63
2023/04/28 01:22:02;;;;;;;19.38;10.40;;;8.30;99.90;;;;;;4992775;28;20038;-64
2023/04/28 01:24:27;;;;;;;17.05;10.32;;;8.30;99.90;;;;;;4996195;28;20456;-65
2023/04/28 01:26:53;;;;;;;16.95;10.45;;;8.20;99.90;;;;;;4988618;28;20030;-66
2023/04/28 01:29:18;;;;;;;17.45;10.32;;;8.20;99.90;;;;;;4997114;28;20042;-65
2023/04/28 01:31:44;;;;;;;15.93;9.40;;;8.20;99.90;;;;;;5004495;28;20049;-65
2023/04/28 01:34:10;;;;;;;15.50;10.23;;;8.20;99.90;;;;;;4998583;28;20046;-64
2023/04/28 01:36:35;;;;;;;18.02;9.90;;;8.20;99.90;;;;;;5010690;28;20045;-66
2023/04/28 01:39:01;;;;;;;16.35;10.32;;;8.20;99.90;;;;;;4987079;28;20100;-63
2023/04/28 01:41:27;;;;;;;16.58;9.68;;;8.10;99.90;;;;;;5011531;28;20084;-63
2023/04/28 01:43:52;;;;;;;15.57;9.07;;;8.10;99.90;;;;;;5004584;28;20484;-63
2023/04/28 01:46:18;;;;;;;18.33;10.05;;;8.10;99.90;;;;;;5002919;28;20125;-64
2023/04/28 01:48:43;;;;;;;13.40;8.55;;;8.10;99.90;;;;;;5004861;28;20042;-65
2023/04/28 01:51:09;;;;;;;15.48;9.13;;;8.10;99.90;;;;;;5004943;28;20056;-65
2023/04/28 01:53:37;;;;;;;17.10;9.48;;;8.10;99.90;;;;;;5004628;28;20038;-65
2023/04/28 01:56:03;;;;;;;17.70;9.50;;;8.10;99.90;;;;;;5000455;28;20046;-64
2023/04/28 01:58:28;;;;;;;15.30;9.13;;;8.10;99.90;;;;;;5011483;28;20030;-63
2023/04/28 02:00:54;;;;;;;16.67;9.15;;;8.10;99.90;;;;;;5006000;28;20038;-63
2023/04/28 02:03:20;;;;;;;15.90;9.38;;;8.00;99.90;;;;;;5010863;28;20045;-65
2023/04/28 02:05:45;;;;;;;17.35;9.68;;;8.00;99.90;;;;;;5009745;28;20033;-65
2023/04/28 02:08:11;;;;;;;16.73;9.18;;;8.00;99.90;;;;;;5006717;28;20044;-64
2023/04/28 02:10:36;;;;;;;15.95;9.05;;;8.00;99.90;;;;;;4995048;28;20484;-64
2023/04/28 02:13:02;;;;;;;16.83;9.63;;;8.00;99.90;;;;;;5011353;28;20504;-65
2023/04/28 02:15:28;;;;;;;16.33;9.52;;;8.00;99.90;;;;;;5008730;28;20756;-65
2023/04/28 02:17:53;;;;;;;16.23;9.38;;;8.00;99.90;;;;;;5002293;28;20034;-64
2023/04/28 02:20:19;;;;;;;14.68;9.35;;;8.00;99.90;;;;;;5003230;28;20034;-65
2023/04/28 02:22:44;;;;;;;16.90;9.20;;;8.00;99.90;;;;;;4996041;28;20039;-63
2023/04/28 02:25:11;;;;;;;16.98;9.38;;;8.00;99.90;;;;;;4981608;28;20050;-65
2023/04/28 02:27:37;;;;;;;15.02;9.98;;;7.90;99.90;;;;;;5009049;28;20057;-62
2023/04/28 02:30:06;;;;;;;17.38;8.95;;;7.90;99.90;;;;;;5002877;28;20118;-64
2023/04/28 02:32:31;;;;;;;17.17;9.38;;;7.90;99.90;;;;;;5000254;28;20034;-66
2023/04/28 02:34:57;;;;;;;17.35;9.55;;;7.90;99.90;;;;;;5007586;28;20121;-66
2023/04/28 02:37:23;;;;;;;15.02;9.18;;;7.90;99.90;;;;;;4993629;28;20582;-63
2023/04/28 02:39:48;;;;;;;16.02;9.52;;;7.90;99.90;;;;;;4987949;28;20050;-64
2023/04/28 02:42:14;;;;;;;17.75;10.18;;;7.90;99.90;;;;;;4981298;28;20512;-63
2023/04/28 02:44:40;;;;;;;16.73;9.18;;;7.90;99.90;;;;;;4986238;28;20117;-68
2023/04/28 02:47:06;;;;;;;14.32;9.18;;;7.90;99.90;;;;;;5005830;28;20069;-64
2023/04/28 02:49:32;;;;;;;16.38;9.07;;;7.90;99.90;;;;;;5005161;28;20084;-64
2023/04/28 02:51:57;;;;;;;14.77;9.30;;;7.90;99.90;;;;;;5009982;28;20076;-65
2023/04/28 02:54:29;;;;;;;14.27;9.35;;;7.90;99.90;;;;;;5011348;28;20042;-64
2023/04/28 02:56:55;;;;;;;16.38;9.23;;;7.90;99.90;;;;;;5004635;28;20392;-64
2023/04/28 02:59:22;;;;;;;11.30;8.27;;;7.90;99.90;;;;;;5004951;28;20034;-64
2023/04/28 03:01:48;;;;;;;15.68;9.60;;;7.90;99.90;;;;;;5007063;28;20109;-68
2023/04/28 03:04:14;;;;;;;15.80;9.30;;;7.90;99.90;;;;;;4992500;28;20030;-65
2023/04/28 03:06:40;;;;;;;13.55;9.32;;;7.90;99.90;;;;;;5005723;28;20404;-63
2023/04/28 03:09:07;;;;;;;15.40;9.82;;;7.90;99.90;;;;;;5000585;28;20038;-65
2023/04/28 03:11:32;;;;;;;16.08;9.73;;;7.90;99.90;;;;;;5000862;28;20492;-64
2023/04/28 03:13:58;;;;;;;15.32;9.40;;;7.90;99.90;;;;;;5000636;28;20120;-65
2023/04/28 03:16:23;;;;;;;17.65;10.05;;;7.90;99.90;;;;;;4987138;28;20504;-65
2023/04/28 03:18:49;;;;;;;16.67;10.02;;;7.90;99.90;;;;;;4997324;28;20070;-64
2023/04/28 03:21:15;;;;;;;16.98;9.68;;;7.90;99.90;;;;;;4987814;28;20042;-64
2023/04/28 03:23:40;;;;;;;16.33;10.02;;;7.80;99.90;;;;;;4989890;28;20034;-69
2023/04/28 03:26:07;;;;;;;16.63;10.40;;;7.90;99.90;;;;;;5010970;28;20431;-65
2023/04/28 03:28:32;;;;;;;16.15;10.05;;;7.80;99.90;;;;;;5002265;28;20046;-65
2023/04/28 03:30:58;;;;;;;15.35;10.10;;;7.80;99.90;;;;;;5007058;28;20033;-65
2023/04/28 03:33:23;;;;;;;16.13;9.68;;;7.80;99.90;;;;;;4988213;28;20050;-64
2023/04/28 03:35:49;;;;;;;17.63;10.65;;;7.80;99.90;;;;;;5022409;22;20497;-66
2023/04/28 03:38:15;;;;;;;17.17;10.45;;;7.90;99.90;;;;;;5005449;28;20074;-65
2023/04/28 03:40:40;;;;;;;16.92;10.35;;;7.80;99.90;;;;;;5000148;28;20503;-65
2023/04/28 03:43:06;;;;;;;15.82;10.27;;;7.80;99.90;;;;;;4984116;28;20431;-65
2023/04/28 03:45:32;;;;;;;15.07;9.98;;;7.80;99.90;;;;;;4971703;28;20555;-65
2023/04/28 03:47:57;;;;;;;15.40;9.75;;;7.80;99.90;;;;;;4983967;28;20389;-64
2023/04/28 03:50:23;;;;;;;14.60;9.38;;;7.80;99.90;;;;;;4972076;28;20037;-64
2023/04/28 03:52:49;;;;;;;15.65;9.43;;;7.80;99.90;;;;;;4981627;28;20037;-64
2023/04/28 03:55:15;;;;;;;16.25;10.40;;;7.80;99.90;;;;;;4996955;28;20484;-67
2023/04/28 03:57:41;;;;;;;14.73;9.82;;;7.80;99.90;;;;;;4995826;28;20535;-67
2023/04/28 04:00:07;;;;;;;15.90;10.38;;;7.80;99.90;;;;;;4975816;28;20070;-67
2023/04/28 04:02:33;;;;;;;16.67;9.85;;;7.80;99.90;;;;;;5002114;28;20045;-67
2023/04/28 04:04:58;;;;;;;18.38;10.18;;;7.80;99.90;;;;;;4975299;28;20030;-67
2023/04/28 04:07:24;;;;;;;17.02;10.70;;;7.80;99.90;;;;;;4998948;28;20045;-67
2023/04/28 04:09:50;;;;;;;18.83;10.18;;;7.80;99.90;;;;;;4974781;28;20065;-67
2023/04/28 04:12:16;;;;;;;18.40;11.07;;;7.80;99.90;;;;;;4996770;28;20087;-67
2023/04/28 04:14:42;;;;;;;18.67;10.55;;;7.80;99.90;;;;;;5001686;28;20048;-65
2023/04/28 04:17:07;;;;;;;16.80;10.23;;;7.80;99.90;;;;;;4990966;28;20050;-64
2023/04/28 04:19:33;;;;;;;23.98;11.00;;;7.80;99.90;;;;;;4998749;28;20040;-65
2023/04/28 04:21:59;;;;;;;15.65;10.48;;;7.80;99.90;;;;;;4972939;28;20054;-65
2023/04/28 04:24:24;;;;;;;16.95;10.18;;;7.80;99.90;;;;;;4975200;28;20035;-65
2023/04/28 04:26:50;;;;;;;18.20;10.88;;;7.80;99.90;;;;;;5006440;28;20111;-65
2023/04/28 04:29:16;;;;;;;18.70;11.38;;;7.80;99.90;;;;;;4993597;28;20109;-64
2023/04/28 04:31:44;;;;;;;18.10;10.60;;;7.80;99.90;;;;;;4977751;28;20045;-65
2023/04/28 04:34:10;;;;;;;16.35;9.95;;;7.80;99.90;;;;;;4981039;28;20050;-64
2023/04/28 04:36:35;;;;;;;17.20;10.68;;;7.80;99.90;;;;;;4990180;28;20085;-65
2023/04/28 04:39:01;;;;;;;16.52;10.55;;;7.80;99.90;;;;;;4975352;28;20077;-64
2023/04/28 04:41:27;;;;;;;15.68;10.27;;;7.80;99.90;;;;;;4973094;28;20038;-64
2023/04/28 04:43:52;;;;;;;15.50;10.00;;;7.80;99.90;;;;;;4997618;28;20057;-65
2023/04/28 04:46:18;;;;;;;17.13;10.20;;;7.80;99.90;;;;;;4990452;28;20508;-65
2023/04/28 04:48:44;;;;;;;18.20;10.80;;;7.80;99.90;;;;;;4974505;28;20042;-64
2023/04/28 04:51:10;;;;;;;14.95;9.88;;;7.80;99.90;;;;;;4988404;28;20057;-64
2023/04/28 04:53:35;;;;;;;18.40;10.45;;;7.90;99.90;;;;;;4978593;28;20072;-64
2023/04/28 04:56:01;;;;;;;15.50;10.43;;;7.90;99.90;;;;;;4990000;28;20097;-65
2023/04/28 04:58:27;;;;;;;17.50;9.90;;;7.90;99.90;;;;;;4980706;28;20481;-64
2023/04/28 05:00:53;;;;;;;15.73;10.23;;;7.90;99.90;;;;;;4993091;28;20117;-65
2023/04/28 05:03:18;;;;;;;14.82;10.02;;;7.90;99.90;;;;;;4982687;28;20070;-66
2023/04/28 05:05:44;;;;;;;16.52;10.25;;;7.90;99.90;;;;;;4983436;28;20050;-65
2023/04/28 05:08:10;;;;;;;16.40;9.90;;;7.90;99.90;;;;;;4987821;28;20484;-65
2023/04/28 05:10:36;;;;;;;16.58;10.27;;;7.90;99.90;;;;;;4983170;28;20042;-66
2023/04/28 05:13:02;;;;;;;17.95;10.38;;;7.90;99.90;;;;;;4969146;28;20049;-65
2023/04/28 05:15:28;;;;;;;16.88;10.25;;;8.00;99.90;;;;;;4975007;28;20046;-66
2023/04/28 05:17:54;;;;;;;19.20;9.93;;;8.00;99.90;;;;;;4982607;28;20041;-65
2023/04/28 05:20:20;;;;;;;17.33;10.75;;;8.00;99.90;;;;;;4979933;28;20038;-65
2023/04/28 05:22:45;;;;;;;14.63;9.88;;;8.00;99.90;;;;;;4967810;28;20057;-65
2023/04/28 05:25:11;;;;;;;15.93;10.10;;;8.00;99.90;;;;;;4992662;28;20502;-65
2023/04/28 05:27:38;;;;;;;14.35;9.70;;;8.00;99.90;;;;;;4988990;28;20089;-66
2023/04/28 05:30:05;;;;;;;13.95;9.70;;;8.00;99.90;;;;;;4993471;28;20096;-66
2023/04/28 05:32:31;;;;;;;15.30;9.88;;;8.10;99.90;;;;;;4997389;28;20034;-66
2023/04/28 05:34:56;;;;;;;14.73;9.63;;;8.00;99.90;;;;;;4992740;28;20050;-66
2023/04/28 05:37:22;;;;;;;13.95;9.30;;;8.00;99.90;;;;;;4986445;28;20506;-66
2023/04/28 05:39:47;;;;;;;15.80;9.15;;;8.10;99.90;;;;;;4998766;28;20515;-66
2023/04/28 05:42:13;;;;;;;16.15;9.20;;;8.10;99.90;;;;;;4994036;28;20038;-66
2023/04/28 05:44:38;;;;;;;15.77;9.75;;;8.10;99.90;;;;;;4993730;28;20076;-65
2023/04/28 05:47:04;;;;;;;17.20;9.55;;;8.10;99.90;;;;;;4984461;28;20049;-66
2023/04/28 05:49:30;;;;;;;17.63;9.30;;;8.20;99.90;;;;;;4995743;28;20042;-66
2023/04/28 05:51:55;;;;;;;16.00;9.05;;;8.20;99.90;;;;;;5000285;28;20515;-66
2023/04/28 05:54:21;;;;;;;15.90;10.15;;;8.10;99.90;;;;;;4993647;28;20047;-66
2023/04/28 05:56:46;;;;;;;14.63;9.40;;;8.20;99.90;;;;;;4993376;28;20116;-66
2023/04/28 05:59:12;;;;;;;17.63;9.73;;;8.20;99.90;;;;;;4981672;28;20042;-66
2023/04/28 06:01:37;;;;;;;15.77;10.02;;;8.20;99.90;;;;;;4990059;28;20038;-66
2023/04/28 06:04:03;;;;;;;15.70;9.45;;;8.20;99.90;;;;;;4991684;28;20424;-66
2023/04/28 06:06:30;;;;;;;14.25;9.27;;;8.30;99.90;;;;;;4981315;28;20072;-66
2023/04/28 06:08:56;;;;;;;15.80;9.55;;;8.30;99.90;;;;;;4982328;28;20041;-66
2023/04/28 06:11:21;;;;;;;17.15;9.80;;;8.30;99.90;;;;;;4984451;28;20033;-66
2023/04/28 06:13:50;;;;;;;15.02;8.52;;;8.30;99.90;;;;;;4991465;28;20488;-66
2023/04/28 06:16:16;;;;;;;13.98;8.75;;;8.30;99.90;;;;;;4983921;28;20050;-66
2023/04/28 06:18:42;;;;;;;16.35;9.10;;;8.40;99.90;;;;;;4998412;28;20422;-65
2023/04/28 06:21:08;;;;;;;14.95;9.23;;;8.40;99.90;;;;;;4998553;28;20054;-65
2023/04/28 06:23:34;;;;;;;15.30;9.15;;;8.40;99.90;;;;;;4999463;28;20458;-66
2023/04/28 06:26:00;;;;;;;13.68;9.07;;;8.40;99.90;;;;;;4984679;28;20396;-66
2023/04/28 06:28:25;;;;;;;15.98;9.18;;;8.40;99.90;;;;;;4997041;28;20038;-66
2023/04/28 06:30:51;;;;;;;12.68;8.52;;;8.40;99.90;;;;;;4993396;28;20298;-66
2023/04/28 06:33:16;;;;;;;13.15;8.65;;;8.40;99.90;;;;;;4998595;28;20037;-66
2023/04/28 06:35:42;;;;;;;13.98;9.27;;;8.40;99.90;;;;;;4977962;28;20042;-66
2023/04/28 06:38:08;;;;;;;15.88;9.07;;;8.50;99.90;;;;;;4980893;28;20038;-66
2023/04/28 06:40:33;;;;;;;16.90;9.80;;;8.50;99.90;;;;;;4990927;28;20041;-66
2023/04/28 06:42:59;;;;;;;18.48;9.45;;;8.50;99.90;;;;;;4996264;28;20042;-66
2023/04/28 06:45:24;;;;;;;14.65;8.52;;;8.60;99.90;;;;;;4991578;28;20077;-66
2023/04/28 06:47:51;;;;;;;14.48;8.48;;;8.60;99.90;;;;;;5000958;28;20036;-66
2023/04/28 06:50:16;;;;;;;13.93;9.07;;;8.70;99.90;;;;;;4998628;28;20034;-66
2023/04/28 06:52:42;;;;;;;13.43;8.50;;;8.70;99.90;;;;;;4988303;28;20042;-66
2023/04/28 06:55:08;;;;;;;13.23;8.38;;;8.80;99.90;;;;;;4986147;28;20048;-66
2023/04/28 06:57:34;;;;;;;12.60;7.97;;;8.90;99.90;;;;;;4994203;28;20171;-65
2023/04/28 06:59:59;;;;;;;12.57;9.00;;;8.90;99.90;;;;;;4989604;28;20039;-66
2023/04/28 07:02:26;;;;;;;14.88;8.27;;;9.00;99.90;;;;;;4996903;28;20038;-66
2023/04/28 07:04:51;;;;;;;14.10;8.25;;;9.10;99.90;;;;;;4999130;28;20038;-66
2023/04/28 07:07:17;;;;;;;16.33;9.25;;;9.20;99.90;;;;;;4991086;28;20046;-66
2023/04/28 07:09:43;;;;;;;11.73;8.25;;;9.20;99.90;;;;;;4991618;28;20034;-66
2023/04/28 07:12:08;;;;;;;12.52;8.10;;;9.10;99.90;;;;;;4981765;28;20112;-66
2023/04/28 07:14:34;;;;;;;11.63;7.72;;;9.20;99.90;;;;;;4983720;28;20053;-66
2023/04/28 07:17:00;;;;;;;12.38;8.15;;;9.20;99.90;;;;;;4986989;28;20038;-66
2023/04/28 07:19:25;;;;;;;14.02;8.57;;;9.20;99.90;;;;;;4995059;28;20042;-66
2023/04/28 07:21:51;;;;;;;12.80;7.97;;;9.30;99.90;;;;;;4996633;28;20035;-66
2023/04/28 07:24:16;;;;;;;17.17;8.65;;;9.40;99.90;;;;;;4989838;28;20077;-66
2023/04/28 07:26:42;;;;;;;10.15;7.53;;;9.50;99.90;;;;;;5007361;28;20046;-66
2023/04/28 07:29:07;;;;;;;14.45;8.38;;;9.50;99.90;;;;;;4978706;28;20042;-66
2023/04/28 07:31:33;;;;;;;13.55;8.23;;;9.60;99.90;;;;;;4990419;28;20043;-66
2023/04/28 07:33:59;;;;;;;14.18;8.27;;;9.60;99.90;;;;;;4977615;28;20487;-66
2023/04/28 07:36:25;;;;;;;13.63;8.80;;;9.70;99.90;;;;;;4999043;28;20404;-66
2023/04/28 07:38:51;;;;;;;15.02;8.73;;;9.80;99.90;;;;;;4981160;28;21287;-66
2023/04/28 07:41:17;;;;;;;15.60;8.60;;;9.80;99.90;;;;;;4986235;28;20445;-66
2023/04/28 07:43:43;;;;;;;15.15;7.90;;;9.80;99.90;;;;;;4997573;28;20125;-66
2023/04/28 07:46:09;;;;;;;11.98;8.38;;;10.00;99.90;;;;;;4987935;28;20167;-66
2023/04/28 07:48:35;;;;;;;15.65;8.15;;;10.00;99.90;;;;;;4985518;28;20034;-66
2023/04/28 07:51:01;;;;;;;13.45;8.70;;;10.10;99.90;;;;;;4989083;28;20041;-66
2023/04/28 07:53:26;;;;;;;11.80;7.90;;;10.10;99.90;;;;;;4987614;28;20057;-66
2023/04/28 07:55:53;;;;;;;12.77;8.45;;;10.10;99.90;;;;;;4993561;28;20049;-66
2023/04/28 07:58:19;;;;;;;15.25;8.77;;;10.10;99.90;;;;;;4988640;28;20045;-66
2023/04/28 08:00:45;;;;;;;12.90;8.68;;;10.10;99.90;;;;;;4996632;28;20034;-66
2023/04/28 08:03:10;;;;;;;11.35;7.75;;;10.10;99.90;;;;;;4972500;28;20396;-66
2023/04/28 08:05:38;;;;;;;12.93;8.77;;;10.20;99.90;;;;;;4984571;28;20053;-66
2023/04/28 08:08:03;;;;;;;12.95;8.65;;;10.20;99.90;;;;;;4984846;28;20039;-66
2023/04/28 08:10:29;;;;;;;14.98;9.55;;;10.30;99.90;;;;;;4968863;28;20034;-66
2023/04/28 08:12:55;;;;;;;16.65;9.05;;;10.40;99.90;;;;;;4974464;28;20096;-66
2023/04/28 08:15:20;;;;;;;14.85;8.40;;;10.40;99.90;;;;;;4991755;28;20038;-66
2023/04/28 08:17:46;;;;;;;13.88;8.13;;;10.60;99.90;;;;;;4999176;28;20117;-66
2023/04/28 08:20:14;;;;;;;14.55;8.40;;;10.60;99.90;;;;;;4993611;28;20089;-66
2023/04/28 08:22:40;;;;;;;16.13;9.27;;;10.70;99.90;;;;;;4990378;28;20041;-66
2023/04/28 08:25:06;;;;;;;15.15;8.50;;;10.70;99.90;;;;;;4972628;28;20053;-66
2023/04/28 08:27:33;;;;;;;15.52;9.25;;;10.80;99.90;;;;;;4992631;28;21069;-66
2023/04/28 08:29:58;;;;;;;12.98;9.10;;;10.80;99.90;;;;;;4977519;28;20050;-66
2023/04/28 08:32:24;;;;;;;13.15;8.88;;;10.90;99.90;;;;;;4982502;28;20097;-66
2023/04/28 08:34:49;;;;;;;14.35;9.25;;;10.90;99.90;;;;;;4987564;28;20045;-66
2023/04/28 08:37:15;;;;;;;14.65;8.85;;;11.00;99.90;;;;;;4994332;28;20385;-66
2023/04/28 08:39:41;;;;;;;11.95;8.57;;;11.10;99.90;;;;;;4972052;28;20038;-65
2023/04/28 08:42:07;;;;;;;13.88;8.80;;;11.10;99.90;;;;;;4967670;28;20058;-65
2023/04/28 08:44:39;;;;;;;14.98;9.07;;;11.20;99.90;;;;;;4974665;28;20045;-65
2023/04/28 08:47:10;;;;;;;;;;;11.30;99.90;;;;;;4978913;28;20092;-65
2023/04/28 08:49:37;;;;;;;11.38;8.15;;;11.40;99.90;;;;;;4997797;28;20004;-65
2023/04/28 08:52:09;;;;;;;15.10;9.15;;;11.60;99.90;;;;;;4977549;28;20038;-65
2023/04/28 08:54:36;;;;;;;15.43;9.25;;;11.80;99.90;;;;;;4974708;28;20050;-65
2023/04/28 08:57:04;;;;;;;14.10;9.07;;;12.00;99.90;;;;;;4990974;28;20038;-65
2023/04/28 08:59:30;;;;;;;13.50;8.45;;;12.10;99.90;;;;;;4988938;28;20493;-65
2023/04/28 09:01:56;;;;;;;12.23;8.65;;;12.20;99.90;;;;;;4985556;28;20485;-65
2023/04/28 09:04:21;;;;;;;10.50;8.40;;;12.30;99.90;;;;;;4996703;28;20035;-66
2023/04/28 09:06:47;;;;;;;14.15;8.80;;;12.30;99.90;;;;;;4986734;28;20101;-67
2023/04/28 09:09:28;;;;;;;11.98;8.82;;;12.30;99.90;;;;;;4999710;28;20040;-67
2023/04/28 09:12:01;;;;;;;12.10;8.48;;;12.20;99.90;;;;;;4993536;28;20040;-63
2023/04/28 09:14:28;;;;;;;13.32;8.25;;;12.20;99.90;;;;;;4975016;28;20117;-63
2023/04/28 09:16:54;;;;;;;14.00;8.57;;;12.20;99.90;;;;;;4993079;28;21423;-63
2023/04/28 09:19:20;;;;;;;14.02;8.57;;;12.30;99.90;;;;;;4976299;28;20046;-64
2023/04/28 09:21:49;;;;;;;13.93;8.80;;;12.30;99.90;;;;;;4976671;28;20050;-64
2023/04/28 09:24:34;;;;;;;12.45;8.10;;;12.40;99.90;;;;;;4965705;28;20038;-64
2023/04/28 09:27:02;;;;;;;14.45;8.38;;;12.60;99.90;;;;;;4976024;28;20043;-64
2023/04/28 09:29:28;;;;;;;13.18;8.73;;;12.70;99.90;;;;;;4997338;28;20238;-64
2023/04/28 09:32:10;;;;;;;14.77;8.48;;;12.80;99.90;;;;;;4988279;28;20389;-67
2023/04/28 09:34:51;;;;;;;11.90;8.88;;;12.80;99.90;;;;;;4996111;28;20121;-66
2023/04/28 09:37:19;;;;;;;13.25;9.05;;;12.90;99.90;;;;;;4997539;23;20038;-64
2023/04/28 09:39:46;;;;;;;13.50;9.13;;;13.00;99.90;;;;;;4984563;28;20042;-64
2023/04/28 09:42:35;;;;;;;13.85;8.90;;;13.10;99.90;;;;;;5006765;28;20506;-64
2023/04/28 09:45:02;;;;;;;15.80;8.88;;;13.20;99.90;;;;;;5006710;28;20046;-66
2023/04/28 09:47:28;;;;;;;14.32;8.90;;;13.30;99.90;;;;;;4988282;28;20042;-64
2023/04/28 09:49:59;;;;;;;11.30;8.32;;;13.50;99.90;;;;;;4992327;28;20042;-64
2023/04/28 09:52:25;;;;;;;18.38;9.05;;;13.60;99.90;;;;;;4991412;28;20042;-68
2023/04/28 09:54:52;;;;;;;15.90;8.77;;;13.70;99.90;;;;;;5004834;28;20501;-65
2023/04/28 09:57:19;;;;;;;23.23;9.35;;;13.90;99.90;;;;;;4990587;28;20045;-65
2023/04/28 09:59:47;;;;;;;31.70;9.38;;;14.00;99.90;;;;;;5004729;28;20069;-68
2023/04/28 10:02:19;;;;;;;17.60;8.82;;;14.20;99.90;;;;;;5009773;28;20048;-66
2023/04/28 10:04:46;;;;;;;14.70;8.80;;;14.40;99.90;;;;;;5006081;28;20045;-65
2023/04/28 10:07:15;;;;;;;12.75;8.18;;;14.80;99.90;;;;;;5006666;28;20038;-65
2023/04/28 10:09:46;;;;;;;13.50;8.45;;;15.00;99.90;;;;;;4994785;28;20499;-67
2023/04/28 10:12:23;;;;;;;11.88;7.80;;;15.30;99.90;;;;;;5005917;28;20034;-65
2023/04/28 10:14:53;;;;;;;14.60;8.40;;;15.30;99.90;;;;;;5009684;28;20077;-65
2023/04/28 10:17:20;;;;;;;15.55;8.57;;;15.30;99.90;;;;;;4990184;28;20245;-65
2023/04/28 10:19:50;;;;;;;14.35;8.30;;;15.30;99.90;;;;;;5012262;28;20121;-66
2023/04/28 10:22:53;;;;;;;15.85;8.05;;;15.20;99.90;;;;;;4995021;28;20472;-65
2023/04/28 10:25:24;;;;;;;12.35;8.38;;;15.10;99.90;;;;;;4990781;28;20659;-65
2023/04/28 10:27:51;;;;;;;13.60;9.05;;;14.90;99.90;;;;;;5011951;28;20121;-66
2023/04/28 10:30:18;;;;;;;16.55;7.95;;;14.80;99.90;;;;;;5010963;28;20415;-66
2023/04/28 10:32:46;;;;;;;13.68;9.00;;;14.70;99.90;;;;;;5011706;28;20157;-65
2023/04/28 10:35:35;;;;;;;10.23;7.65;;;14.60;99.90;;;;;;5008950;28;20500;-66
2023/04/28 10:38:17;;;;;;;10.60;6.85;;;14.50;99.90;;;;;;4951014;28;20157;-65
2023/04/28 10:41:00;;;;;;;11.05;7.03;;;14.50;99.90;;;;;;5012172;28;20516;-64
2023/04/28 10:43:31;;;;;;;11.48;7.47;;;14.30;99.90;;;;;;5006031;28;20116;-64
2023/04/28 10:46:00;;;;;;;10.38;7.72;;;14.40;99.90;;;;;;5002964;28;20038;-64
2023/04/28 10:48:29;;;;;;;10.13;7.32;;;14.40;99.90;;;;;;4988313;28;20042;-64
2023/04/28 10:53:44;;;;;;;11.57;8.18;;;14.40;99.90;;;;;;4984274;28;20405;-64
2023/04/28 10:56:18;;;;;;;11.23;9.02;;;14.50;99.90;;;;;;4992207;28;20088;-65
2023/04/28 10:58:45;;;;;;;13.48;8.98;;;14.50;99.90;;;;;;5007993;28;20121;-64
2023/04/28 11:01:19;;;;;;;12.73;8.85;;;14.40;99.90;;;;;;5009421;28;20060;-68
2023/04/28 11:04:02;;;;;;;13.63;9.30;;;14.50;99.90;;;;;;4988846;28;21956;-65
2023/04/28 11:06:33;;;;;;;11.35;8.25;;;14.50;99.90;;;;;;4985197;28;20034;-64
2023/04/28 11:09:11;;;;;;;11.63;8.50;;;14.40;99.90;;;;;;5006347;28;20067;-66
2023/04/28 11:11:38;;;;;;;14.07;9.18;;;14.40;99.90;;;;;;4987735;28;20302;-64
2023/04/28 11:14:17;;;;;;;13.43;8.63;;;14.40;99.90;;;;;;4992358;28;20396;-65
2023/04/28 11:16:58;;;;;;;13.73;8.68;;;14.40;99.90;;;;;;4986571;28;20088;-65
2023/04/28 11:19:36;;;;;;;13.68;8.90;;;14.30;99.90;;;;;;4990613;28;20042;-65
2023/04/28 11:22:08;;;;;;;13.02;9.23;;;14.30;99.90;;;;;;5007889;28;20038;-65
2023/04/28 11:24:34;;;;;;;;;;;14.20;99.90;;;;;;4990359;28;20049;-65
2023/04/28 11:27:01;;;;;;;12.15;8.38;;;14.10;99.90;;;;;;5010561;28;19917;-67
2023/04/28 11:29:34;;;;;;;16.67;9.45;;;14.00;99.90;;;;;;4988223;28;20065;-65
2023/04/28 11:32:04;;;;;;;14.18;9.32;;;13.90;99.90;;;;;;4991433;28;20046;-65
2023/04/28 11:34:30;;;;;;;18.73;10.60;;;13.80;99.90;;;;;;4999083;28;20037;-65
2023/04/28 11:36:56;;;;;;;16.80;10.98;;;13.70;99.90;;;;;;5007838;28;20084;-66
2023/04/28 11:39:29;;;;;;;17.05;11.30;;;13.70;99.90;;;;;;4989623;28;20060;-64
2023/04/28 11:41:56;;;;;;;19.13;12.60;;;13.60;99.90;;;;;;5007777;28;20440;-65
2023/04/28 11:44:25;;;;;;;19.65;15.05;;;13.60;99.90;;;;;;4978589;28;20046;-66
2023/04/28 11:46:56;;;;;;;24.05;16.58;;;13.60;99.90;;;;;;4988472;28;20037;-65
2023/04/28 11:49:27;;;;;;;24.85;17.08;;;13.50;99.90;;;;;;4985298;28;20085;-65
2023/04/28 11:51:54;;;;;;;23.95;17.67;;;13.50;99.90;;;;;;5013516;28;20045;-64
2023/04/28 11:54:22;;;;;;;23.02;17.80;;;13.60;99.90;;;;;;5009226;28;20042;-65
2023/04/28 11:56:47;;;;;;;24.83;19.08;;;13.70;99.90;;;;;;5004759;28;20046;-64
2023/04/28 11:59:13;;;;;;;28.38;19.52;;;13.70;99.90;;;;;;5008064;28;20049;-65
2023/04/28 12:01:55;;;;;;;27.33;18.27;;;13.70;99.90;;;;;;4988085;28;20128;-65
2023/04/28 12:04:37;;;;;;;;;;;13.70;99.90;;;;;;5006980;28;20069;-64
2023/04/28 12:07:12;;;;;;;25.88;17.98;;;13.70;99.90;;;;;;5005117;28;20421;-67
2023/04/28 12:10:11;;;;;;;26.90;20.30;;;13.70;99.90;;;;;;5010136;28;20125;-64
2023/04/28 12:12:37;;;;;;;26.23;19.73;;;13.70;99.90;;;;;;5007283;28;20042;-65
2023/04/28 12:15:05;;;;;;;30.17;19.70;;;13.60;99.90;;;;;;4994765;28;20048;-68
2023/04/28 12:17:32;;;;;;;27.48;20.95;;;13.60;99.90;;;;;;4993149;28;20162;-64
2023/04/28 12:20:03;;;;;;;25.90;19.30;;;13.60;99.90;;;;;;4995104;28;20076;-64
2023/04/28 12:22:30;;;;;;;27.17;19.35;;;13.60;99.90;;;;;;5006483;28;20042;-67
2023/04/28 12:25:01;;;;;;;28.50;20.67;;;13.60;99.90;;;;;;4991909;28;20046;-64
2023/04/28 12:27:28;;;;;;;27.73;21.08;;;13.60;99.90;;;;;;4991538;28;20506;-68
2023/04/28 12:29:55;;;;;;;26.77;21.13;;;13.50;99.90;;;;;;4990716;28;20056;-67
2023/04/28 12:32:40;;;;;;;34.55;21.13;;;13.40;99.90;;;;;;5010136;28;20393;-65
2023/04/28 12:35:06;;;;;;;33.03;21.67;;;13.50;99.90;;;;;;5009674;28;20038;-64
2023/04/28 12:37:32;;;;;;;28.88;21.17;;;13.40;99.90;;;;;;5009933;28;20669;-65
2023/04/28 12:40:01;;;;;;;29.80;23.15;;;13.30;99.90;;;;;;5006945;28;20117;-65
2023/04/28 12:42:28;;;;;;;28.60;22.33;;;13.30;99.90;;;;;;4991248;28;20048;-65
2023/04/28 12:44:53;;;;;;;29.67;23.20;;;13.30;99.90;;;;;;5009639;28;20675;-65